Logo AVAMET
Benvolgut visitant, si us plau, ingressa Recuperar contrasenya

Bolulla

Dades diàries. Acumulats / Últims 30 dies disponibles

Data Temperatura (°C) Humitat rel. (%) Pressió rel. (hPa) Vent (km/h) Precipitació
Mínima Mitjana Màxima Amplitud
tèrmica
Mínima Mitjana Màxima Mínima Mitjana Màxima Predom. Mitjana Ràfega
màxima
Total
(mm)
Índex-n
Mínima Mitjana Màxima Mínima Mitjana Màxima n
0 a 1
P0 max
mm 5'
Dades mensuals acumulades fins l'últim dia disponible
01/2020 3,8 6,8 9,7 10,1 13,0 14,5 17,9 14,1 45 79 97 0 444 1.030   7,3 78,1 439,5
Dades anuals acumulades fins l'últim dia disponible
2020 3,8 6,8 9,7 10,1 13,0 14,5 17,9 14,1 45 79 97 0 444 1.030   7,3 78,1 439,5
Últims 30 dies disponibles
28-01-2020 9,3     13,1     16,7 7,4 67 76 84 1.019 1.020 1.021 OSO 5,3 26,3 0,0
27-01-2020 7,3     11,1     16,3 9,0 46 69 88 1.019 1.021 1.023 O 6,5 31,6 0,0
26-01-2020 7,7     11,6     15,8 8,1 55 73 93 1.016 1.019 1.022 O 7,0 27,8 0,0
25-01-2020 8,1     11,1     15,1 7,0 67 85 94 1.015 1.017 1.019 OSO 5,7 19,1 0,0
24-01-2020 7,7     10,7     14,7 7,0 70 85 92 1.018 1.019 1.021 OSO 7,2 24,1 0,0
23-01-2020 7,2     9,5     13,2 6,0 79 87 93 1.017 1.018 1.020 ONO 7,0 19,1 0,0
22-01-2020 7,3     10,5     14,4 7,1 70 83 96 1.014 1.016 1.017 OSO 7,7 29,8 0,2
21-01-2020 9,7     11,3     14,1 4,4 73 86 97 1.010 1.012 1.016 S 7,5 42,6 85,4 0,58 6,70
20-01-2020 5,9     9,6     13,6 7,7 82 88 94 1.014 1.015 1.017 ESE 11,2 78,1 177,4 0,97 57,30
19-01-2020 7,4     10,9     13,6 6,2 64 75 90 1.011 1.014 1.018 OSO 12,4 78,1 143,8 0,23 11,70
18-01-2020 9,1     10,7     14,6 5,5 52 72 87 1.018 1.026 1.030 NO 6,1 15,5 0,0
17-01-2020 8,4     12,8     17,9 9,5 45 61 84 1.025 1.027 1.029 ONO 7,9 37,0 0,0
16-01-2020 8,3     11,7     15,8 7,5 60 75 87 0 221 1.026 O 5,9 24,1
15-01-2020 5,5     10,1     15,3 9,8 53 70 84 0 0 0 O 6,3 20,4 0,0
14-01-2020 4,8     8,6     13,9 9,1 45 66 86 0 0 0 O 7,2 18,5 0,0
13-01-2020 3,8     7,7     13,7 9,9 52 74 89 0 0 0 ONO 7,6 18,5 0,0
12-01-2020 4,5     7,8     13,2 8,7 60 79 88 0 0 0 O 7,2 17,2 0,0
11-01-2020 6,1     10,1     13,0 6,9 62 75 89 0 0 0 OSO 9,4 40,7 0,3
10-01-2020 5,9     9,7     13,2 7,3 57 80 93 0 0 0 SO 10,1 50,3 32,4 0,45 1,30
09-01-2020 7,1     9,9     14,2 7,1 64 83 93 0 0 0 O 6,4 20,4 0,0
08-01-2020 5,9     9,9     15,5 9,6 49 78 91 0 0 0 OSO 6,6 29,6 0,0
07-01-2020 6,1     9,3     13,8 7,7 75 88 95 0 0 0 O 6,6 18,5 0,0
06-01-2020 5,7     9,3     13,9 8,2 65 81 93 0 0 0 O 6,0 18,5 0,0
05-01-2020 6,3     9,3     15,2 8,9 57 76 85 0 0 0 ONO 7,0 16,7 0,0
04-01-2020 6,5     9,2     14,2 7,7 66 81 92 0 0 0 ONO 7,2 18,5 0,0
03-01-2020 5,7     8,6     13,3 7,6 70 88 96 0 0 0 O 6,4 14,8 0,0
02-01-2020 6,9     10,1     13,1 6,2 71 84 93 0 0 0 OSO 6,0 22,2 0,0
01-01-2020 6,6     9,8     13,8 7,2 72 86 92 0 0 0 OSO 6,5 16,7 0,0
31-12-2019 6,7     9,4     13,2 6,5 72 87 93 0 0 0 O 7,1 17,2 0,0
30-12-2019 7,6     10,8     14,8 7,2 62 81 94 0 0 0 O 4,6 16,7 0,3
Últims 13 mesos disponibles
12/2019 5,8 10,1 15,6 13,2 12,2 17,1 22,7 16,9 48 73 89 0 0 O 8,0 76,6 171,6
11/2019 5,2 10,7 17,7 14,2 13,4 18,2 25,9 20,7 43 62 88 969 981 987 O 9,9 81,4 19,0
10/2019 9,4 14,7 17,6 18,6 15,8 23,1 27,9 18,5 47 73 87 973 982 987 O 7,6 70,3 59,3
09/2019 13,7 18,8 22,8 22,2 21,4 26,5 30,6 16,9 61 78 89 968 981 987 OSO 7,4 59,9 212,8
07/2019 19,4 21,6 26,4 26,2 25,0 31,2 38,4 19,0 37 60 80 966 982 987 OSO 8,0 46,3 0,2
06/2019 13,6 17,0 23,4 22,3 22,2 27,7 36,3 22,7 39 58 79 973 982 987 OSO 8,3 42,6 0,5
05/2019 9,8 13,2 18,7 17,4 18,0 22,1 26,9 17,1 56 70 84 962 984 1.001 OSO 8,1 54,2 7,1
04/2019 7,4 10,7 14,2 14,5 14,1 18,5 26,2 18,8 43 70 91 978 995 1.001 OSO 8,3 79,6
03/2019 6,8 9,0 12,2 13,4 12,2 18,0 26,4 19,6 40 61 85 991 1.014 1.028 O 8,2 56,1 44,0
02/2019 4,1 7,2 10,7 11,7 11,8 16,5 20,7 16,6 39 62 80 996 1.023 1.031 O 8,4 72,9 0,3
01/2019 3,2 7,1 11,3 10,5 10,7 14,9 19,7 16,5 43 64 85 1.003 1.017 1.029 ONO 8,7 75,9 15,7
12/2018 6,4 8,8 11,8 12,4 12,4 17,3 21,2 14,8 51 72 89 1.008 1.023 1.030 ONO 7,0 68,5 43,1
11/2018 7,5 11,0 16,9 14,0 13,4 17,6 21,8 14,3 56 73 89 999 1.014 1.021 O 7,5 63,3 146,0
Tots els anys disponibles
2018 2,8 13,6 27,2 17,3 7,4 21,5 35,3 32,5 41 69 90 984 1.013 1.032 OSO 8,0 85,1 705,8
2017 3,8 14,1 26,7 18,4 8,4 22,9 34,6 30,8 41 68 89 998 1.017 1.033 OSO 2,6 96,0 223,0
2016
Temperatura (°C)
Humitat relativa (%)
Velocitat del vent i ràfega màxima (km/h)
Direcció del vent (°)
Pressió (hPa)
Precipitació (mm)
Nota sobre les dades: s'avisa a l'usuari de la provisionalitat i no oficialitat d'aquestes dades
Logo AVAMET blanc
Web allotjada a Sollutia
Llicència de Creative CommonsLa web d'AVAMET i els seus continguts estan subjectes a una llicència de
Reconeixement - No Comercial - Compartir igual
Últimes estacions: Xixona - Els Ameradors (Soci), Agres - El Tossal (Soci), Xàbia - Bevenguts (MeteoXàbia), Llíria (Aj. Soci/Inforatge), Orihuela - Lo Capitán, Cox & Guardamar del Segura - horta (Meteorihuela), l'Alcúdia - Carriona & el Real de Gandia (Inforatge), Benicàssim - les Vil·les (Soci),  l'Alfàs del Pi - l'Albir (Soci), - - -